Time,TemperatureF,DewpointF,PressureIn,WindDirection,WindDirectionDegrees,WindSpeedMPH,WindSpeedGustMPH,Humidity,HourlyPrecipIn,Conditions,Clouds,dailyrainin,SolarRadiationWatts/m^2,SoftwareType,DateUTC
2013-03-30 08:19:00,49.3,24.1,29.88,SSE,158,5.8,5.8,37,-99.99,,---,-99.99,0.00,VWS V14.01,2013-03-30 13:19:00,
2013-03-30 08:20:00,49.3,24.1,29.88,ESE,112,3.6,5.8,37,-99.99,,---,-99.99,0.00,VWS V14.01,2013-03-30 13:20:00,
2013-03-30 08:23:00,49.5,24.3,29.88,South,180,7.4,7.4,37,-99.99,,---,-99.99,0.00,VWS V14.01,2013-03-30 13:23:00,
2013-03-30 08:24:00,49.5,24.3,29.88,SE,135,3.4,7.4,37,-99.99,,---,-99.99,0.00,VWS V14.01,2013-03-30 13:24:00,
2013-03-30 08:29:00,49.6,24.5,29.88,SE,135,5.4,5.4,37,-99.99,,---,-99.99,0.00,VWS V14.01,2013-03-30 13:29:00,
2013-03-30 08:35:00,50.0,24.8,29.88,SE,135,5.4,5.4,37,-99.99,,---,-99.99,0.00,VWS V14.01,2013-03-30 13:35:00,
2013-03-30 08:41:00,50.2,24.3,29.88,SSE,158,8.1,10.3,36,-99.99,,---,-99.99,0.00,VWS V14.01,2013-03-30 13:41:00,
2013-03-30 08:46:00,50.2,24.9,29.88,SSE,158,5.6,8.1,37,-99.99,,---,-99.99,0.00,VWS V14.01,2013-03-30 13:46:00,
2013-03-30 08:51:00,50.2,24.9,29.88,SE,135,3.8,3.8,37,-99.99,,---,-99.99,0.00,VWS V14.01,2013-03-30 13:51:00,
2013-03-30 08:57:00,50.4,25.1,29.88,SSE,158,7.6,7.6,37,-99.99,,---,-99.99,0.00,VWS V14.01,2013-03-30 13:57:00,
2013-03-30 09:02:00,50.4,25.1,29.88,South,180,7.2,9.0,37,-99.99,,---,-99.99,0.00,VWS V14.01,2013-03-30 14:02:00,
2013-03-30 09:07:00,50.4,25.1,29.88,SSE,158,4.3,4.3,37,-99.99,,---,-99.99,0.00,VWS V14.01,2013-03-30 14:07:00,
2013-03-30 09:13:00,50.4,25.1,29.88,SSW,202,8.5,8.5,37,-99.99,,---,-99.99,0.00,VWS V14.01,2013-03-30 14:13:00,
2013-03-30 09:18:00,50.2,24.9,29.88,SSE,158,7.2,7.8,37,-99.99,,---,-99.99,0.00,VWS V14.01,2013-03-30 14:18:00,
2013-03-30 09:23:00,50.0,24.8,29.88,SSE,158,3.8,3.8,37,-99.99,,---,-99.99,0.00,VWS V14.01,2013-03-30 14:23:00,
2013-03-30 09:29:00,49.8,25.2,29.88,South,180,3.4,3.4,38,-99.99,,---,-99.99,0.00,VWS V14.01,2013-03-30 14:29:00,
2013-03-30 09:35:00,49.3,25.4,29.88,SSE,158,7.6,7.6,39,-99.99,,---,-99.99,0.00,VWS V14.01,2013-03-30 14:35:00,
2013-03-30 09:40:00,49.1,27.0,29.88,SSW,202,8.1,8.1,42,-99.99,,---,-99.99,0.00,VWS V14.01,2013-03-30 14:40:00,
2013-03-30 09:45:00,48.9,28.0,29.88,South,180,7.8,7.8,44,-99.99,,---,-99.99,0.00,VWS V14.01,2013-03-30 14:45:00,
2013-03-30 09:51:00,48.7,28.9,29.88,South,180,9.6,9.6,46,-99.99,,---,-99.99,0.00,VWS V14.01,2013-03-30 14:51:00,
2013-03-30 09:56:00,48.7,29.4,29.88,SSE,158,10.3,10.3,47,-99.99,,---,-99.99,0.00,VWS V14.01,2013-03-30 14:56:00,
2013-03-30 10:01:00,48.6,29.3,29.88,SSE,158,4.3,6.0,47,-99.99,,---,-99.99,0.00,VWS V14.01,2013-03-30 15:01:00,
2013-03-30 10:07:00,48.4,29.6,29.88,SSE,158,1.3,2.2,48,-99.99,,---,-99.99,0.00,VWS V14.01,2013-03-30 15:07:00,
2013-03-30 10:12:00,48.6,30.8,29.88,SE,135,3.1,4.0,50,-99.99,,---,-99.99,0.00,VWS V14.01,2013-03-30 15:12:00,
2013-03-30 10:18:00,48.4,30.6,29.88,ESE,112,1.6,3.1,50,-99.99,,---,-99.99,0.00,VWS V14.01,2013-03-30 15:18:00,
2013-03-30 10:24:00,48.6,31.3,29.88,SE,135,4.0,4.3,51,-99.99,,---,-99.99,0.00,VWS V14.01,2013-03-30 15:24:00,
2013-03-30 10:30:00,48.6,31.8,29.88,ENE,68,2.5,2.5,52,-99.99,,---,-99.99,0.00,VWS V14.01,2013-03-30 15:30:00,
2013-03-30 10:35:00,48.7,31.9,29.88,East,90,1.3,2.5,52,-99.99,,---,-99.99,0.00,VWS V14.01,2013-03-30 15:35:00,
2013-03-30 10:41:00,48.9,32.1,29.88,East,90,1.1,1.6,52,-99.99,,---,-99.99,0.00,VWS V14.01,2013-03-30 15:41:00,
2013-03-30 10:46:00,48.9,32.1,29.88,NNW,338,2.5,2.5,52,-99.99,,---,-99.99,0.00,VWS V14.01,2013-03-30 15:46:00,
2013-03-30 10:52:00,48.9,32.1,29.88,NNW,338,3.1,3.1,52,-99.99,,---,-99.99,0.00,VWS V14.01,2013-03-30 15:52:00,
2013-03-30 11:09:00,0.0,0.0,29.91,NNW,338,0.0,0.0,0,-99.99,,---,-99.99,0.00,VWS V14.01,2013-03-30 16:09:00,
2013-03-30 11:14:00,49.1,34.5,29.91,NNW,338,1.1,2.2,57,-99.99,,---,-99.99,0.00,VWS V14.01,2013-03-30 16:14:00,
2013-03-30 11:20:00,49.1,34.1,29.88,SSE,158,1.6,1.6,56,-99.99,,---,-99.99,0.00,VWS V14.01,2013-03-30 16:20:00,
2013-03-30 11:26:00,49.3,34.7,29.88,SSE,158,0.0,0.0,57,-99.99,,---,-99.99,0.00,VWS V14.01,2013-03-30 16:26:00,
2013-03-30 11:31:00,49.6,35.0,29.88,SSE,158,3.8,3.8,57,-99.99,,---,-99.99,0.00,VWS V14.01,2013-03-30 16:31:00,
2013-03-30 11:37:00,50.0,35.4,29.88,SE,135,2.9,2.9,57,-99.99,,---,-99.99,0.00,VWS V14.01,2013-03-30 16:37:00,
2013-03-30 11:44:00,50.4,36.6,29.88,SE,135,4.9,4.9,59,-99.99,,---,-99.99,0.00,VWS V14.01,2013-03-30 16:44:00,
2013-03-30 11:49:00,50.4,36.6,29.88,SSE,158,5.8,5.8,59,-99.99,,---,-99.99,0.00,VWS V14.01,2013-03-30 16:49:00,
2013-03-30 11:54:00,50.9,37.1,29.88,SSE,158,7.8,7.8,59,-99.99,,---,-99.99,0.00,VWS V14.01,2013-03-30 16:54:00,
2013-03-30 12:00:00,51.4,38.0,29.88,SSE,158,8.7,9.6,60,-99.99,,---,-99.99,0.00,VWS V14.01,2013-03-30 17:00:00,
2013-03-30 12:06:00,51.4,38.0,29.88,SSE,158,6.5,6.5,60,-99.99,,---,-99.99,0.00,VWS V14.01,2013-03-30 17:06:00,
2013-03-30 12:11:00,51.4,38.9,29.85,SE,135,7.4,7.4,62,-99.99,,---,-99.99,0.00,VWS V14.01,2013-03-30 17:11:00,
2013-03-30 12:17:00,51.6,39.5,29.85,SE,135,7.4,7.4,63,-99.99,,---,-99.99,0.00,VWS V14.01,2013-03-30 17:17:00,
2013-03-30 12:22:00,51.6,39.5,29.82,SE,135,10.5,10.5,63,-99.99,,---,-99.99,0.00,VWS V14.01,2013-03-30 17:22:00,
2013-03-30 12:28:00,51.4,39.7,29.82,SE,135,5.6,5.6,64,-99.99,,---,-99.99,0.00,VWS V14.01,2013-03-30 17:28:00,
2013-03-30 12:34:00,51.4,38.9,29.82,South,180,4.9,4.9,62,-99.99,,---,-99.99,0.00,VWS V14.01,2013-03-30 17:34:00,
2013-03-30 12:39:00,51.4,38.9,29.82,South,180,4.7,5.4,62,-99.99,,---,-99.99,0.00,VWS V14.01,2013-03-30 17:39:00,
2013-03-30 12:45:00,51.4,38.9,29.82,SSE,158,5.6,6.5,62,-99.99,,---,-99.99,0.00,VWS V14.01,2013-03-30 17:45:00,
2013-03-30 12:50:00,51.4,38.5,29.85,SSE,158,5.6,5.6,61,-99.99,,---,-99.99,0.00,VWS V14.01,2013-03-30 17:50:00,
2013-03-30 12:56:00,51.8,39.6,29.85,SE,135,5.8,5.8,63,-99.99,,---,-99.99,0.00,VWS V14.01,2013-03-30 17:56:00,
2013-03-30 13:03:00,51.8,39.6,29.85,SSE,158,5.6,5.8,63,-99.99,,---,-99.99,0.00,VWS V14.01,2013-03-30 18:03:00,
2013-03-30 13:08:00,51.8,39.6,29.85,SSE,158,6.5,6.5,63,-99.99,,---,-99.99,0.00,VWS V14.01,2013-03-30 18:08:00,
2013-03-30 13:13:00,51.8,39.6,29.85,South,180,6.0,6.0,63,-99.99,,---,-99.99,0.00,VWS V14.01,2013-03-30 18:13:00,
2013-03-30 13:19:00,53.4,43.1,29.85,SSE,158,7.4,9.2,68,-99.99,,---,-99.99,0.00,VWS V14.01,2013-03-30 18:19:00,
2013-03-30 13:24:00,53.8,43.5,29.85,SSE,158,4.9,7.6,68,-99.99,,---,-99.99,0.00,VWS V14.01,2013-03-30 18:24:00,
2013-03-30 13:30:00,54.0,44.0,29.85,SE,135,9.8,9.8,69,-99.99,,---,-99.99,0.00,VWS V14.01,2013-03-30 18:30:00,
2013-03-30 13:36:00,54.3,43.6,29.85,SSE,158,5.6,8.7,67,-99.99,,---,-99.99,0.00,VWS V14.01,2013-03-30 18:36:00,
2013-03-30 13:41:00,54.7,44.0,29.85,SE,135,6.5,10.3,67,-99.99,,---,-99.99,0.00,VWS V14.01,2013-03-30 18:41:00,
2013-03-30 13:47:00,54.5,43.4,29.85,SSE,158,8.5,8.5,66,-99.99,,---,-99.99,0.00,VWS V14.01,2013-03-30 18:47:00,
2013-03-30 13:53:00,54.7,43.2,29.85,South,180,5.6,7.4,65,-99.99,,---,-99.99,0.00,VWS V14.01,2013-03-30 18:53:00,
2013-03-30 13:59:00,55.0,43.5,29.85,SSE,158,5.8,6.3,65,-99.99,,---,-99.99,0.00,VWS V14.01,2013-03-30 18:59:00,
2013-03-30 14:05:00,55.2,43.3,29.85,SSW,202,5.6,5.6,64,-99.99,,---,-99.99,0.00,VWS V14.01,2013-03-30 19:05:00,
2013-03-30 14:11:00,55.8,43.4,29.85,SSW,202,7.6,7.6,63,-99.99,,---,-99.99,0.00,VWS V14.01,2013-03-30 19:11:00,
2013-03-30 14:16:00,55.8,43.0,29.85,SSW,202,2.9,2.9,62,-99.99,,---,-99.99,0.00,VWS V14.01,2013-03-30 19:16:00,
2013-03-30 14:25:00,0.0,0.0,29.85,South,180,4.0,4.0,0,-99.99,,---,-99.99,0.00,VWS V14.01,2013-03-30 19:25:00,
2013-03-30 14:30:00,56.1,42.9,29.85,SSW,202,3.6,6.3,61,-99.99,,---,-99.99,0.00,VWS V14.01,2013-03-30 19:30:00,
2013-03-30 14:35:00,56.1,42.9,29.85,South,180,7.6,7.6,61,-99.99,,---,-99.99,0.00,VWS V14.01,2013-03-30 19:35:00,
2013-03-30 14:41:00,56.1,42.9,29.85,SSW,202,4.0,6.0,61,-99.99,,---,-99.99,0.00,VWS V14.01,2013-03-30 19:41:00,
2013-03-30 14:47:00,56.1,42.0,29.85,SSE,158,3.4,6.5,59,-99.99,,---,-99.99,0.00,VWS V14.01,2013-03-30 19:47:00,
2013-03-30 14:52:00,56.3,42.2,29.85,South,180,5.4,5.8,59,-99.99,,---,-99.99,0.00,VWS V14.01,2013-03-30 19:52:00,
2013-03-30 14:58:00,56.8,43.1,29.85,SE,135,3.1,3.1,60,-99.99,,---,-99.99,0.00,VWS V14.01,2013-03-30 19:58:00,
2013-03-30 15:03:00,57.2,43.0,29.85,South,180,6.3,6.3,59,-99.99,,---,-99.99,0.00,VWS V14.01,2013-03-30 20:03:00,
2013-03-30 15:09:00,57.4,42.7,29.85,SSE,158,4.7,6.3,58,-99.99,,---,-99.99,0.00,VWS V14.01,2013-03-30 20:09:00,
2013-03-30 15:14:00,57.6,42.5,29.85,South,180,3.8,3.8,57,-99.99,,---,-99.99,0.00,VWS V14.01,2013-03-30 20:14:00,
2013-03-30 15:19:00,57.6,42.0,29.85,SE,135,4.0,4.0,56,-99.99,,---,-99.99,0.00,VWS V14.01,2013-03-30 20:19:00,
2013-03-30 15:24:00,57.6,42.0,29.85,SSE,158,7.8,7.8,56,-99.99,,---,-99.99,0.00,VWS V14.01,2013-03-30 20:24:00,
2013-03-30 15:30:00,57.4,40.9,29.85,SSE,158,3.4,3.4,54,-99.99,,---,-99.99,0.00,VWS V14.01,2013-03-30 20:30:00,
2013-03-30 15:36:00,57.4,41.4,29.85,SE,135,1.3,4.3,55,-99.99,,---,-99.99,0.00,VWS V14.01,2013-03-30 20:36:00,
2013-03-30 15:42:00,58.1,42.5,29.85,South,180,3.4,3.8,56,-99.99,,---,-99.99,0.00,VWS V14.01,2013-03-30 20:42:00,
2013-03-30 15:47:00,59.2,43.5,29.85,South,180,6.0,6.0,56,-99.99,,---,-99.99,0.00,VWS V14.01,2013-03-30 20:47:00,
2013-03-30 15:53:00,59.0,41.4,29.85,SSE,158,4.0,8.5,52,-99.99,,---,-99.99,0.00,VWS V14.01,2013-03-30 20:53:00,
2013-03-30 15:58:00,58.5,40.4,29.85,SSE,158,5.4,5.4,51,-99.99,,---,-99.99,0.00,VWS V14.01,2013-03-30 20:58:00,
2013-03-30 16:04:00,58.3,40.2,29.85,South,180,2.7,2.7,51,-99.99,,---,-99.99,0.00,VWS V14.01,2013-03-30 21:04:00,
2013-03-30 16:10:00,58.1,40.1,29.85,SW,225,3.8,5.8,51,-99.99,,---,-99.99,0.00,VWS V14.01,2013-03-30 21:10:00,
2013-03-30 16:16:00,58.6,41.1,29.85,SSE,158,2.0,3.1,52,-99.99,,---,-99.99,0.00,VWS V14.01,2013-03-30 21:16:00,
2013-03-30 16:22:00,59.0,40.9,29.82,South,180,4.9,4.9,51,-99.99,,---,-99.99,0.00,VWS V14.01,2013-03-30 21:22:00,
2013-03-30 16:28:00,58.8,40.2,29.82,ESE,112,4.9,4.9,50,-99.99,,---,-99.99,0.00,VWS V14.01,2013-03-30 21:28:00,
2013-03-30 16:34:00,58.8,40.2,29.82,SSE,158,1.1,3.8,50,-99.99,,---,-99.99,0.00,VWS V14.01,2013-03-30 21:34:00,
2013-03-30 16:39:00,59.2,40.6,29.82,SSE,158,2.9,5.6,50,-99.99,,---,-99.99,0.00,VWS V14.01,2013-03-30 21:39:00,
2013-03-30 16:44:00,59.2,40.6,29.82,South,180,3.8,3.8,50,-99.99,,---,-99.99,0.00,VWS V14.01,2013-03-30 21:44:00,
2013-03-30 16:50:00,60.8,42.1,29.82,ESE,112,3.6,3.6,50,-99.99,,---,-99.99,0.00,VWS V14.01,2013-03-30 21:50:00,
2013-03-30 16:56:00,61.3,41.5,29.82,WSW,248,1.3,1.3,48,-99.99,,---,-99.99,0.00,VWS V14.01,2013-03-30 21:56:00,
2013-03-30 17:02:00,61.7,41.8,29.82,WNW,292,1.6,2.2,48,-99.99,,---,-99.99,0.00,VWS V14.01,2013-03-30 22:02:00,
2013-03-30 17:08:00,62.8,41.7,29.82,SSW,202,2.0,2.2,46,-99.99,,---,-99.99,0.00,VWS V14.01,2013-03-30 22:08:00,
2013-03-30 17:13:00,62.8,41.7,29.82,SSW,202,2.5,2.5,46,-99.99,,---,-99.99,0.00,VWS V14.01,2013-03-30 22:13:00,
2013-03-30 17:18:00,63.1,40.9,29.82,SE,135,3.8,4.0,44,-99.99,,---,-99.99,0.00,VWS V14.01,2013-03-30 22:18:00,
2013-03-30 17:24:00,62.6,38.0,29.79,SSE,158,6.0,7.2,40,-99.99,,---,-99.99,0.00,VWS V14.01,2013-03-30 22:24:00,
2013-03-30 17:30:00,62.4,38.4,29.79,SE,135,4.3,4.9,41,-99.99,,---,-99.99,0.00,VWS V14.01,2013-03-30 22:30:00,
2013-03-30 17:35:00,62.6,38.0,29.79,South,180,3.6,4.9,40,-99.99,,---,-99.99,0.00,VWS V14.01,2013-03-30 22:35:00,
2013-03-30 17:41:00,62.6,38.0,29.79,SE,135,4.0,4.0,40,-99.99,,---,-99.99,0.00,VWS V14.01,2013-03-30 22:41:00,
2013-03-30 17:47:00,62.6,36.7,29.79,ENE,68,2.5,4.3,38,-99.99,,---,-99.99,0.00,VWS V14.01,2013-03-30 22:47:00,
2013-03-30 17:52:00,62.8,36.8,29.79,SSE,158,3.1,3.4,38,-99.99,,---,-99.99,0.00,VWS V14.01,2013-03-30 22:52:00,
2013-03-30 17:58:00,62.8,36.8,29.79,ESE,112,2.5,2.5,38,-99.99,,---,-99.99,0.00,VWS V14.01,2013-03-30 22:58:00,
2013-03-30 18:03:00,62.6,36.0,29.79,SSE,158,2.7,3.1,37,-99.99,,---,-99.99,0.00,VWS V14.01,2013-03-30 23:03:00,
2013-03-30 18:09:00,61.5,35.0,29.79,SSE,158,3.1,3.1,37,-99.99,,---,-99.99,0.00,VWS V14.01,2013-03-30 23:09:00,
2013-03-30 18:14:00,60.8,34.4,29.79,SE,135,3.6,4.3,37,-99.99,,---,-99.99,0.00,VWS V14.01,2013-03-30 23:14:00,
2013-03-30 18:19:00,60.4,34.7,29.79,SSE,158,3.4,3.4,38,-99.99,,---,-99.99,0.00,VWS V14.01,2013-03-30 23:19:00,
2013-03-30 18:24:00,59.9,34.2,29.76,SSE,158,2.7,3.1,38,-99.99,,---,-99.99,0.00,VWS V14.01,2013-03-30 23:24:00,
2013-03-30 18:30:00,59.9,34.2,29.76,SSE,158,2.0,2.0,38,-99.99,,---,-99.99,0.00,VWS V14.01,2013-03-30 23:30:00,
2013-03-30 18:36:00,59.5,34.6,29.76,SSE,158,2.7,2.7,39,-99.99,,---,-99.99,0.00,VWS V14.01,2013-03-30 23:36:00,
2013-03-30 18:42:00,59.7,36.0,29.76,SE,135,3.8,4.3,41,-99.99,,---,-99.99,0.00,VWS V14.01,2013-03-30 23:42:00,
2013-03-30 18:47:00,59.7,36.0,29.79,SSE,158,3.8,3.8,41,-99.99,,---,-99.99,0.00,VWS V14.01,2013-03-30 23:47:00,
2013-03-30 18:53:00,59.7,35.4,29.79,South,180,4.9,4.9,40,-99.99,,---,-99.99,0.00,VWS V14.01,2013-03-30 23:53:00,
2013-03-30 18:58:00,59.7,35.4,29.79,South,180,3.8,3.8,40,-99.99,,---,-99.99,0.00,VWS V14.01,2013-03-30 23:58:00,
2013-03-30 19:03:00,59.2,34.9,29.79,SE,135,2.9,4.0,40,-99.99,,---,-99.99,0.00,VWS V14.01,2013-03-31 00:03:00,
2013-03-30 19:09:00,58.3,34.1,29.79,South,180,4.3,4.9,40,-99.99,,---,-99.99,0.00,VWS V14.01,2013-03-31 00:09:00,
2013-03-30 19:14:00,57.9,35.0,29.79,SSE,158,3.6,6.0,42,-99.99,,---,-99.99,0.00,VWS V14.01,2013-03-31 00:14:00,
2013-03-30 19:20:00,57.6,36.4,29.79,ESE,112,3.6,3.6,45,-99.99,,---,-99.99,0.00,VWS V14.01,2013-03-31 00:20:00,
2013-03-30 19:25:00,57.4,36.8,29.79,SSE,158,6.0,6.0,46,-99.99,,---,-99.99,0.00,VWS V14.01,2013-03-31 00:25:00,
2013-03-30 19:31:00,57.0,35.9,29.79,South,180,2.9,3.1,45,-99.99,,---,-99.99,0.00,VWS V14.01,2013-03-31 00:31:00,
2013-03-30 19:38:00,56.7,36.1,29.79,SSE,158,3.8,3.8,46,-99.99,,---,-99.99,0.00,VWS V14.01,2013-03-31 00:38:00,
2013-03-30 19:43:00,56.7,36.1,29.79,SSE,158,3.1,4.3,46,-99.99,,---,-99.99,0.00,VWS V14.01,2013-03-31 00:43:00,
2013-03-30 19:48:00,55.8,35.3,29.79,SSE,158,5.4,5.4,46,-99.99,,---,-99.99,0.00,VWS V14.01,2013-03-31 00:48:00,
2013-03-30 19:54:00,55.6,35.7,29.79,SSE,158,3.8,3.8,47,-99.99,,---,-99.99,0.00,VWS V14.01,2013-03-31 00:54:00,
2013-03-30 20:00:00,55.2,35.4,29.79,SSE,158,3.4,4.3,47,-99.99,,---,-99.99,0.00,VWS V14.01,2013-03-31 01:00:00,